sensor_id;sensor_type;location;lat;lon;timestamp;pressure;altitude;pressure_sealevel;temperature;humidity
11912;BME280;6016;41.928;25.556;2022-12-18T00:00:44;99689.19;;;12.20;93.18
11912;BME280;6016;41.928;25.556;2022-12-18T00:03:14;99714.13;;;12.37;94.20
11912;BME280;6016;41.928;25.556;2022-12-18T00:05:46;99707.69;;;12.20;93.85
11912;BME280;6016;41.928;25.556;2022-12-18T00:08:14;99727.50;;;12.35;93.49
11912;BME280;6016;41.928;25.556;2022-12-18T00:10:41;99721.06;;;12.38;93.41
11912;BME280;6016;41.928;25.556;2022-12-18T00:13:08;99719.56;;;12.45;93.68
11912;BME280;6016;41.928;25.556;2022-12-18T00:15:35;99728.34;;;12.46;93.92
11912;BME280;6016;41.928;25.556;2022-12-18T00:18:03;99731.69;;;12.48;93.47
11912;BME280;6016;41.928;25.556;2022-12-18T00:20:32;99730.03;;;12.47;93.76
11912;BME280;6016;41.928;25.556;2022-12-18T00:23:01;99736.16;;;12.47;94.58
11912;BME280;6016;41.928;25.556;2022-12-18T00:25:28;99753.56;;;12.50;93.57
11912;BME280;6016;41.928;25.556;2022-12-18T00:27:55;99754.25;;;12.52;94.69
11912;BME280;6016;41.928;25.556;2022-12-18T00:30:22;99756.09;;;12.51;94.08
11912;BME280;6016;41.928;25.556;2022-12-18T00:32:49;99755.81;;;12.55;94.52
11912;BME280;6016;41.928;25.556;2022-12-18T00:35:16;99733.34;;;12.39;94.09
11912;BME280;6016;41.928;25.556;2022-12-18T00:37:44;99722.72;;;12.29;94.41
11912;BME280;6016;41.928;25.556;2022-12-18T00:40:11;99749.06;;;12.41;95.17
11912;BME280;6016;41.928;25.556;2022-12-18T00:42:38;99543.41;;;11.11;95.41
11912;BME280;6016;41.928;25.556;2022-12-18T00:45:23;99742.38;;;12.27;94.94
11912;BME280;6016;41.928;25.556;2022-12-18T00:47:50;99760.34;;;12.43;94.42
11912;BME280;6016;41.928;25.556;2022-12-18T00:50:17;99748.69;;;12.45;95.01
11912;BME280;6016;41.928;25.556;2022-12-18T00:52:46;99722.03;;;12.27;94.70
11912;BME280;6016;41.928;25.556;2022-12-18T00:55:13;99677.13;;;11.96;94.63
11912;BME280;6016;41.928;25.556;2022-12-18T00:57:40;99738.19;;;12.34;94.56
11912;BME280;6016;41.928;25.556;2022-12-18T01:00:10;99790.50;;;12.51;95.00
11912;BME280;6016;41.928;25.556;2022-12-18T01:02:37;99738.88;;;12.26;93.97
11912;BME280;6016;41.928;25.556;2022-12-18T01:05:05;99776.69;;;12.48;94.32
11912;BME280;6016;41.928;25.556;2022-12-18T01:07:32;99747.25;;;12.31;94.51
11912;BME280;6016;41.928;25.556;2022-12-18T01:10:00;99728.84;;;12.20;94.48
11912;BME280;6016;41.928;25.556;2022-12-18T01:12:27;99793.13;;;12.51;93.88
11912;BME280;6016;41.928;25.556;2022-12-18T01:14:54;99792.28;;;12.51;94.35
11912;BME280;6016;41.928;25.556;2022-12-18T01:17:21;99781.78;;;12.30;93.99
11912;BME280;6016;41.928;25.556;2022-12-18T01:19:48;99789.25;;;12.56;94.19
11912;BME280;6016;41.928;25.556;2022-12-18T01:22:15;99630.91;;;11.59;93.98
11912;BME280;6016;41.928;25.556;2022-12-18T01:24:41;99734.69;;;12.23;93.71
11912;BME280;6016;41.928;25.556;2022-12-18T01:27:10;99778.25;;;12.60;93.36
11912;BME280;6016;41.928;25.556;2022-12-18T01:29:37;99780.91;;;12.60;93.38
11912;BME280;6016;41.928;25.556;2022-12-18T01:32:04;99795.09;;;12.59;94.22
11912;BME280;6016;41.928;25.556;2022-12-18T01:34:31;99784.38;;;12.61;93.39
11912;BME280;6016;41.928;25.556;2022-12-18T01:36:57;99790.50;;;12.61;94.34
11912;BME280;6016;41.928;25.556;2022-12-18T01:39:24;99772.97;;;12.60;93.77
11912;BME280;6016;41.928;25.556;2022-12-18T01:41:51;99766.00;;;12.59;93.31
11912;BME280;6016;41.928;25.556;2022-12-18T01:45:08;99764.03;;;12.61;93.36
11912;BME280;6016;41.928;25.556;2022-12-18T01:47:50;99760.13;;;12.56;94.36
11912;BME280;6016;41.928;25.556;2022-12-18T01:50:21;99746.72;;;12.47;94.77
11912;BME280;6016;41.928;25.556;2022-12-18T01:52:52;99655.66;;;11.89;94.90
11912;BME280;6016;41.928;25.556;2022-12-18T01:55:22;99753.28;;;12.43;95.06
11912;BME280;6016;41.928;25.556;2022-12-18T01:57:51;99714.22;;;12.16;95.14
11912;BME280;6016;41.928;25.556;2022-12-18T02:00:22;99756.19;;;12.40;94.96
11912;BME280;6016;41.928;25.556;2022-12-18T02:02:50;99731.91;;;12.25;94.60
11912;BME280;6016;41.928;25.556;2022-12-18T02:05:20;99732.38;;;12.40;94.66
11912;BME280;6016;41.928;25.556;2022-12-18T02:08:00;99574.66;;;11.37;94.52
11912;BME280;6016;41.928;25.556;2022-12-18T02:10:33;99720.75;;;12.21;94.88
11912;BME280;6016;41.928;25.556;2022-12-18T02:13:09;99712.13;;;12.19;94.45
11912;BME280;6016;41.928;25.556;2022-12-18T02:15:43;99695.34;;;11.99;94.82
11912;BME280;6016;41.928;25.556;2022-12-18T02:18:14;99760.66;;;12.49;94.77
11912;BME280;6016;41.928;25.556;2022-12-18T02:20:47;99761.63;;;12.38;94.69
11912;BME280;6016;41.928;25.556;2022-12-18T02:23:24;99779.63;;;12.55;94.83
11912;BME280;6016;41.928;25.556;2022-12-18T02:26:14;99703.03;;;12.02;94.76
11912;BME280;6016;41.928;25.556;2022-12-18T02:28:46;99789.94;;;12.58;95.74
11912;BME280;6016;41.928;25.556;2022-12-18T02:31:23;99616.44;;;11.53;95.69
11912;BME280;6016;41.928;25.556;2022-12-18T02:33:53;99798.03;;;12.66;95.40
11912;BME280;6016;41.928;25.556;2022-12-18T02:36:25;99788.28;;;12.66;94.91
11912;BME280;6016;41.928;25.556;2022-12-18T02:38:55;99796.09;;;12.68;95.58
11912;BME280;6016;41.928;25.556;2022-12-18T02:41:25;99797.00;;;12.47;95.28
11912;BME280;6016;41.928;25.556;2022-12-18T02:43:55;99743.94;;;12.39;95.51
11912;BME280;6016;41.928;25.556;2022-12-18T02:46:30;99807.78;;;12.75;94.76
11912;BME280;6016;41.928;25.556;2022-12-18T02:49:05;99806.81;;;12.76;94.39
11912;BME280;6016;41.928;25.556;2022-12-18T02:51:39;99769.84;;;12.45;94.92
11912;BME280;6016;41.928;25.556;2022-12-18T02:54:18;99803.34;;;12.76;94.77
11912;BME280;6016;41.928;25.556;2022-12-18T02:56:51;99809.63;;;12.75;94.61
11912;BME280;6016;41.928;25.556;2022-12-18T02:59:25;99759.66;;;12.41;95.26
11912;BME280;6016;41.928;25.556;2022-12-18T03:02:00;99810.16;;;12.69;95.93
11912;BME280;6016;41.928;25.556;2022-12-18T03:04:30;99795.34;;;12.56;95.10
11912;BME280;6016;41.928;25.556;2022-12-18T03:07:11;99772.38;;;12.47;95.29
11912;BME280;6016;41.928;25.556;2022-12-18T03:09:43;99729.50;;;12.12;94.38
11912;BME280;6016;41.928;25.556;2022-12-18T03:12:17;99814.06;;;12.74;94.22
11912;BME280;6016;41.928;25.556;2022-12-18T03:14:54;99681.22;;;11.79;94.44
11912;BME280;6016;41.928;25.556;2022-12-18T03:17:26;99798.28;;;12.63;94.77
11912;BME280;6016;41.928;25.556;2022-12-18T03:19:56;99750.63;;;12.33;94.26
11912;BME280;6016;41.928;25.556;2022-12-18T03:22:27;99823.56;;;12.77;94.70
11912;BME280;6016;41.928;25.556;2022-12-18T03:24:57;99758.53;;;12.33;94.63
11912;BME280;6016;41.928;25.556;2022-12-18T03:27:28;99781.41;;;12.44;95.17
11912;BME280;6016;41.928;25.556;2022-12-18T03:30:01;99738.84;;;12.16;95.53
11912;BME280;6016;41.928;25.556;2022-12-18T03:32:38;99829.13;;;12.74;95.28
11912;BME280;6016;41.928;25.556;2022-12-18T03:35:08;99832.31;;;12.68;96.00
11912;BME280;6016;41.928;25.556;2022-12-18T03:37:37;99751.94;;;12.18;96.64
11912;BME280;6016;41.928;25.556;2022-12-18T03:40:06;99782.50;;;12.42;96.53
11912;BME280;6016;41.928;25.556;2022-12-18T03:42:39;99836.91;;;12.75;95.79
11912;BME280;6016;41.928;25.556;2022-12-18T03:45:13;99761.59;;;12.29;95.89
11912;BME280;6016;41.928;25.556;2022-12-18T03:47:56;99849.75;;;12.80;95.87
11912;BME280;6016;41.928;25.556;2022-12-18T03:50:32;99854.06;;;12.81;95.91
11912;BME280;6016;41.928;25.556;2022-12-18T03:53:08;99855.75;;;12.82;95.88
11912;BME280;6016;41.928;25.556;2022-12-18T03:55:40;99870.31;;;12.66;95.41
11912;BME280;6016;41.928;25.556;2022-12-18T03:58:13;99866.75;;;12.77;95.06
11912;BME280;6016;41.928;25.556;2022-12-18T04:00:43;99787.88;;;12.20;95.48
11912;BME280;6016;41.928;25.556;2022-12-18T04:03:11;99806.69;;;12.27;96.49
11912;BME280;6016;41.928;25.556;2022-12-18T04:05:40;99871.44;;;12.64;96.49
11912;BME280;6016;41.928;25.556;2022-12-18T04:08:08;99870.00;;;12.50;97.20
11912;BME280;6016;41.928;25.556;2022-12-18T04:10:35;99873.00;;;12.35;97.75
11912;BME280;6016;41.928;25.556;2022-12-18T04:13:02;99839.81;;;12.31;97.99
11912;BME280;6016;41.928;25.556;2022-12-18T04:15:31;99882.69;;;12.56;97.46
11912;BME280;6016;41.928;25.556;2022-12-18T04:18:01;99886.31;;;12.55;97.49
11912;BME280;6016;41.928;25.556;2022-12-18T04:20:28;99879.06;;;12.57;98.13
11912;BME280;6016;41.928;25.556;2022-12-18T04:22:55;99892.28;;;12.57;98.28
11912;BME280;6016;41.928;25.556;2022-12-18T04:25:22;99853.59;;;12.25;98.03
11912;BME280;6016;41.928;25.556;2022-12-18T04:27:49;99854.28;;;12.27;98.19
11912;BME280;6016;41.928;25.556;2022-12-18T04:30:16;99889.09;;;12.54;98.51
11912;BME280;6016;41.928;25.556;2022-12-18T04:32:44;99892.72;;;12.52;97.97
11912;BME280;6016;41.928;25.556;2022-12-18T04:35:11;99891.59;;;12.55;99.16
11912;BME280;6016;41.928;25.556;2022-12-18T04:37:37;99846.63;;;12.24;98.77
11912;BME280;6016;41.928;25.556;2022-12-18T04:40:05;99883.75;;;12.44;98.65
11912;BME280;6016;41.928;25.556;2022-12-18T04:42:32;99909.22;;;12.66;98.27
11912;BME280;6016;41.928;25.556;2022-12-18T04:44:59;99903.53;;;12.71;98.50
11912;BME280;6016;41.928;25.556;2022-12-18T04:47:26;99873.34;;;12.52;97.81
11912;BME280;6016;41.928;25.556;2022-12-18T04:49:54;99847.28;;;12.47;96.96
11912;BME280;6016;41.928;25.556;2022-12-18T04:52:21;99880.22;;;12.64;97.21
11912;BME280;6016;41.928;25.556;2022-12-18T04:54:48;99882.59;;;12.68;96.90
11912;BME280;6016;41.928;25.556;2022-12-18T04:57:18;99883.56;;;12.66;96.58
11912;BME280;6016;41.928;25.556;2022-12-18T04:59:47;99907.31;;;12.88;96.54
11912;BME280;6016;41.928;25.556;2022-12-18T05:02:14;99911.50;;;12.90;96.35
11912;BME280;6016;41.928;25.556;2022-12-18T05:04:40;99887.38;;;12.74;96.49
11912;BME280;6016;41.928;25.556;2022-12-18T05:07:09;99924.19;;;12.87;96.15
11912;BME280;6016;41.928;25.556;2022-12-18T05:09:35;99914.56;;;12.86;96.30
11912;BME280;6016;41.928;25.556;2022-12-18T05:12:02;99926.00;;;12.86;96.38
11912;BME280;6016;41.928;25.556;2022-12-18T05:14:29;99887.47;;;12.62;96.28
11912;BME280;6016;41.928;25.556;2022-12-18T05:16:56;99921.28;;;12.90;96.54
11912;BME280;6016;41.928;25.556;2022-12-18T05:19:23;99927.28;;;12.92;96.87
11912;BME280;6016;41.928;25.556;2022-12-18T05:21:50;99930.63;;;12.94;97.02
11912;BME280;6016;41.928;25.556;2022-12-18T05:24:18;99900.28;;;12.67;96.81
11912;BME280;6016;41.928;25.556;2022-12-18T05:26:44;99930.63;;;12.94;96.70
11912;BME280;6016;41.928;25.556;2022-12-18T05:29:11;99918.84;;;12.77;96.59
11912;BME280;6016;41.928;25.556;2022-12-18T05:31:38;99935.06;;;12.93;96.81
11912;BME280;6016;41.928;25.556;2022-12-18T05:34:05;99942.03;;;12.94;96.57
11912;BME280;6016;41.928;25.556;2022-12-18T05:36:32;99892.88;;;12.61;96.20
11912;BME280;6016;41.928;25.556;2022-12-18T05:38:59;99945.41;;;12.97;96.87
11912;BME280;6016;41.928;25.556;2022-12-18T05:41:28;99923.19;;;12.78;95.86
11912;BME280;6016;41.928;25.556;2022-12-18T05:43:55;99959.19;;;13.00;96.11
11912;BME280;6016;41.928;25.556;2022-12-18T05:46:21;99966.19;;;13.01;96.09
11912;BME280;6016;41.928;25.556;2022-12-18T05:48:49;99892.84;;;12.51;96.12
11912;BME280;6016;41.928;25.556;2022-12-18T05:51:18;99973.41;;;12.99;96.13
11912;BME280;6016;41.928;25.556;2022-12-18T05:53:46;99968.28;;;12.98;96.67
11912;BME280;6016;41.928;25.556;2022-12-18T05:56:15;99985.84;;;12.99;96.34
11912;BME280;6016;41.928;25.556;2022-12-18T05:58:44;99945.22;;;12.78;96.67
11912;BME280;6016;41.928;25.556;2022-12-18T06:01:13;99984.28;;;12.96;96.07
11912;BME280;6016;41.928;25.556;2022-12-18T06:03:40;99966.63;;;12.75;96.56
11912;BME280;6016;41.928;25.556;2022-12-18T06:06:13;99971.72;;;12.88;96.64
11912;BME280;6016;41.928;25.556;2022-12-18T06:08:40;99989.00;;;12.92;96.47
11912;BME280;6016;41.928;25.556;2022-12-18T06:11:07;100005.75;;;12.93;96.05
11912;BME280;6016;41.928;25.556;2022-12-18T06:13:37;99953.94;;;12.69;96.29
11912;BME280;6016;41.928;25.556;2022-12-18T06:16:05;99969.63;;;12.61;96.06
11912;BME280;6016;41.928;25.556;2022-12-18T06:18:33;99990.41;;;12.65;95.41
11912;BME280;6016;41.928;25.556;2022-12-18T06:21:02;100011.81;;;12.84;95.82
11912;BME280;6016;41.928;25.556;2022-12-18T06:23:29;100011.81;;;12.84;95.94
11912;BME280;6016;41.928;25.556;2022-12-18T06:25:56;99998.34;;;12.65;95.80
11912;BME280;6016;41.928;25.556;2022-12-18T06:28:23;100000.81;;;12.57;95.13
11912;BME280;6016;41.928;25.556;2022-12-18T06:30:50;100031.34;;;12.61;95.71
11912;BME280;6016;41.928;25.556;2022-12-18T06:33:19;100032.19;;;12.62;95.66
11912;BME280;6016;41.928;25.556;2022-12-18T06:35:46;100007.53;;;12.40;94.91
11912;BME280;6016;41.928;25.556;2022-12-18T06:38:13;100014.56;;;12.30;94.77
11912;BME280;6016;41.928;25.556;2022-12-18T06:40:40;100033.47;;;12.46;94.59
11912;BME280;6016;41.928;25.556;2022-12-18T06:43:07;100062.09;;;12.52;93.96
11912;BME280;6016;41.928;25.556;2022-12-18T06:45:34;100006.47;;;12.10;93.17
11912;BME280;6016;41.928;25.556;2022-12-18T06:48:01;100052.81;;;12.26;92.56
11912;BME280;6016;41.928;25.556;2022-12-18T06:50:29;100018.16;;;12.07;92.29
11912;BME280;6016;41.928;25.556;2022-12-18T06:52:56;100075.38;;;12.41;92.06
11912;BME280;6016;41.928;25.556;2022-12-18T06:55:23;99893.09;;;11.30;90.83
11912;BME280;6016;41.928;25.556;2022-12-18T06:57:50;100080.34;;;12.56;91.02
11912;BME280;6016;41.928;25.556;2022-12-18T07:00:17;100057.31;;;12.14;90.64
11912;BME280;6016;41.928;25.556;2022-12-18T07:02:44;100077.34;;;12.28;91.29
11912;BME280;6016;41.928;25.556;2022-12-18T07:05:11;100107.19;;;12.51;89.76
11912;BME280;6016;41.928;25.556;2022-12-18T07:07:39;100055.97;;;12.19;89.36
11912;BME280;6016;41.928;25.556;2022-12-18T07:10:06;100117.78;;;12.51;88.59
11912;BME280;6016;41.928;25.556;2022-12-18T07:12:33;100096.25;;;12.23;87.96
11912;BME280;6016;41.928;25.556;2022-12-18T07:15:00;100066.34;;;12.00;86.01
11912;BME280;6016;41.928;25.556;2022-12-18T07:17:27;100129.00;;;12.43;85.64
11912;BME280;6016;41.928;25.556;2022-12-18T07:19:55;100130.34;;;12.37;85.98
11912;BME280;6016;41.928;25.556;2022-12-18T07:22:21;100095.69;;;12.08;85.49
11912;BME280;6016;41.928;25.556;2022-12-18T07:24:50;100135.16;;;12.32;84.61
11912;BME280;6016;41.928;25.556;2022-12-18T07:27:16;100119.69;;;12.28;85.26
11912;BME280;6016;41.928;25.556;2022-12-18T07:29:43;100097.50;;;12.07;85.37
11912;BME280;6016;41.928;25.556;2022-12-18T07:32:10;100147.03;;;12.38;85.58
11912;BME280;6016;41.928;25.556;2022-12-18T07:34:37;100141.38;;;12.43;84.91
11912;BME280;6016;41.928;25.556;2022-12-18T07:37:04;100113.53;;;12.27;85.17
11912;BME280;6016;41.928;25.556;2022-12-18T07:39:31;100140.91;;;12.37;84.63
11912;BME280;6016;41.928;25.556;2022-12-18T07:41:59;100146.84;;;12.30;84.04
11912;BME280;6016;41.928;25.556;2022-12-18T07:44:43;100102.66;;;11.86;84.91
11912;BME280;6016;41.928;25.556;2022-12-18T07:47:10;100155.78;;;12.17;85.21
11912;BME280;6016;41.928;25.556;2022-12-18T07:49:37;100161.88;;;12.18;86.07
11912;BME280;6016;41.928;25.556;2022-12-18T07:52:04;100142.66;;;11.93;85.47
11912;BME280;6016;41.928;25.556;2022-12-18T07:54:31;100166.09;;;11.98;85.44
11912;BME280;6016;41.928;25.556;2022-12-18T07:56:59;100131.63;;;11.19;86.79
11912;BME280;6016;41.928;25.556;2022-12-18T07:59:26;100145.56;;;11.56;87.82
11912;BME280;6016;41.928;25.556;2022-12-18T08:01:53;100190.75;;;11.87;87.31
11912;BME280;6016;41.928;25.556;2022-12-18T08:04:20;100170.22;;;11.67;87.48
11912;BME280;6016;41.928;25.556;2022-12-18T08:06:46;100066.78;;;11.04;87.83
11912;BME280;6016;41.928;25.556;2022-12-18T08:09:13;99935.88;;;10.08;86.30
11912;BME280;6016;41.928;25.556;2022-12-18T08:11:40;100122.03;;;11.30;86.93
11912;BME280;6016;41.928;25.556;2022-12-18T08:14:09;100208.16;;;11.66;87.80
11912;BME280;6016;41.928;25.556;2022-12-18T08:16:36;100196.38;;;11.71;87.66
11912;BME280;6016;41.928;25.556;2022-12-18T08:19:03;100201.31;;;11.75;87.16
11912;BME280;6016;41.928;25.556;2022-12-18T08:21:31;100201.94;;;11.79;87.70
11912;BME280;6016;41.928;25.556;2022-12-18T08:24:01;100203.00;;;11.76;86.26
11912;BME280;6016;41.928;25.556;2022-12-18T08:26:30;100015.25;;;10.52;86.24
11912;BME280;6016;41.928;25.556;2022-12-18T08:28:58;100227.38;;;11.68;86.24
11912;BME280;6016;41.928;25.556;2022-12-18T08:31:30;100220.66;;;11.53;85.51
11912;BME280;6016;41.928;25.556;2022-12-18T08:33:58;100205.59;;;11.42;85.96
11912;BME280;6016;41.928;25.556;2022-12-18T08:36:25;100225.81;;;11.77;85.98
11912;BME280;6016;41.928;25.556;2022-12-18T08:38:53;100256.94;;;11.85;86.37
11912;BME280;6016;41.928;25.556;2022-12-18T08:41:20;100218.97;;;11.86;85.43
11912;BME280;6016;41.928;25.556;2022-12-18T08:43:47;100174.03;;;11.40;86.36
11912;BME280;6016;41.928;25.556;2022-12-18T08:46:35;100239.75;;;11.79;86.14
11912;BME280;6016;41.928;25.556;2022-12-18T08:49:02;100239.75;;;11.68;87.07
11912;BME280;6016;41.928;25.556;2022-12-18T08:51:29;100200.59;;;11.50;86.72
11912;BME280;6016;41.928;25.556;2022-12-18T08:53:56;100246.84;;;11.67;85.06
11912;BME280;6016;41.928;25.556;2022-12-18T08:56:23;100239.88;;;11.55;87.09
11912;BME280;6016;41.928;25.556;2022-12-18T08:58:52;100168.97;;;11.26;86.33
11912;BME280;6016;41.928;25.556;2022-12-18T09:01:19;100229.19;;;11.57;87.46
11912;BME280;6016;41.928;25.556;2022-12-18T09:03:48;100200.09;;;11.45;87.73
11912;BME280;6016;41.928;25.556;2022-12-18T09:06:16;100028.09;;;10.33;87.83
11912;BME280;6016;41.928;25.556;2022-12-18T09:08:45;100236.03;;;11.71;86.16
11912;BME280;6016;41.928;25.556;2022-12-18T09:11:14;100213.63;;;11.29;86.69
11912;BME280;6016;41.928;25.556;2022-12-18T09:13:44;100223.28;;;11.53;87.07
11912;BME280;6016;41.928;25.556;2022-12-18T09:16:12;100216.31;;;11.52;86.26
11912;BME280;6016;41.928;25.556;2022-12-18T09:18:39;100220.50;;;11.54;85.80
11912;BME280;6016;41.928;25.556;2022-12-18T09:21:11;100227.88;;;11.74;86.96
11912;BME280;6016;41.928;25.556;2022-12-18T09:23:38;100234.63;;;11.78;84.82
11912;BME280;6016;41.928;25.556;2022-12-18T09:26:07;100212.84;;;11.63;85.41
11912;BME280;6016;41.928;25.556;2022-12-18T09:28:35;100204.09;;;11.51;84.70
11912;BME280;6016;41.928;25.556;2022-12-18T09:31:04;100226.66;;;11.66;84.32
11912;BME280;6016;41.928;25.556;2022-12-18T09:33:33;100232.69;;;11.68;84.60
11912;BME280;6016;41.928;25.556;2022-12-18T09:36:01;100188.91;;;11.30;83.96
11912;BME280;6016;41.928;25.556;2022-12-18T09:38:30;100241.56;;;11.67;83.38
11912;BME280;6016;41.928;25.556;2022-12-18T09:40:59;100232.56;;;11.70;83.83
11912;BME280;6016;41.928;25.556;2022-12-18T09:43:36;100238.56;;;11.61;81.91
11912;BME280;6016;41.928;25.556;2022-12-18T09:46:10;100213.28;;;11.34;83.08
11912;BME280;6016;41.928;25.556;2022-12-18T09:48:41;100188.41;;;11.36;82.91
11912;BME280;6016;41.928;25.556;2022-12-18T09:51:18;100214.66;;;11.51;82.37
11912;BME280;6016;41.928;25.556;2022-12-18T09:53:52;100122.00;;;10.95;82.28
11912;BME280;6016;41.928;25.556;2022-12-18T09:56:21;100207.19;;;11.56;84.06
11912;BME280;6016;41.928;25.556;2022-12-18T09:58:57;100118.16;;;11.00;84.23
11912;BME280;6016;41.928;25.556;2022-12-18T10:01:25;100239.75;;;11.68;84.34
11912;BME280;6016;41.928;25.556;2022-12-18T10:03:54;100144.34;;;11.14;85.59
11912;BME280;6016;41.928;25.556;2022-12-18T10:06:23;100240.38;;;11.83;84.45
11912;BME280;6016;41.928;25.556;2022-12-18T10:08:58;100224.03;;;11.89;84.70
11912;BME280;6016;41.928;25.556;2022-12-18T10:11:36;100091.03;;;11.09;83.54
11912;BME280;6016;41.928;25.556;2022-12-18T10:14:10;100241.03;;;12.09;84.26
11912;BME280;6016;41.928;25.556;2022-12-18T10:16:47;100225.13;;;11.98;84.17
11912;BME280;6016;41.928;25.556;2022-12-18T10:19:37;100243.06;;;12.17;84.53
11912;BME280;6016;41.928;25.556;2022-12-18T10:22:13;100245.81;;;12.16;84.98
11912;BME280;6016;41.928;25.556;2022-12-18T10:24:51;100171.03;;;11.79;85.37
11912;BME280;6016;41.928;25.556;2022-12-18T10:27:23;100223.13;;;12.02;85.28
11912;BME280;6016;41.928;25.556;2022-12-18T10:29:50;100237.88;;;12.16;86.22
11912;BME280;6016;41.928;25.556;2022-12-18T10:32:18;100244.84;;;12.17;86.17
11912;BME280;6016;41.928;25.556;2022-12-18T10:34:46;100243.88;;;12.18;87.07
11912;BME280;6016;41.928;25.556;2022-12-18T10:37:16;100187.84;;;11.78;87.56
11912;BME280;6016;41.928;25.556;2022-12-18T10:39:46;100169.13;;;11.70;87.15
11912;BME280;6016;41.928;25.556;2022-12-18T10:42:30;100223.66;;;11.94;88.37
11912;BME280;6016;41.928;25.556;2022-12-18T10:45:02;100226.59;;;12.02;88.96
11912;BME280;6016;41.928;25.556;2022-12-18T10:47:30;100239.81;;;12.14;88.57
11912;BME280;6016;41.928;25.556;2022-12-18T10:49:56;100249.41;;;12.15;88.60
11912;BME280;6016;41.928;25.556;2022-12-18T10:52:27;100233.06;;;11.98;88.99
11912;BME280;6016;41.928;25.556;2022-12-18T10:54:59;100254.81;;;12.13;89.20
11912;BME280;6016;41.928;25.556;2022-12-18T10:57:33;100208.66;;;11.72;89.23
11912;BME280;6016;41.928;25.556;2022-12-18T11:00:20;100260.13;;;12.02;89.93
11912;BME280;6016;41.928;25.556;2022-12-18T11:02:48;100261.69;;;12.04;90.02
11912;BME280;6016;41.928;25.556;2022-12-18T11:05:30;100266.84;;;12.06;90.51
11912;BME280;6016;41.928;25.556;2022-12-18T11:07:58;100262.66;;;12.03;90.23
11912;BME280;6016;41.928;25.556;2022-12-18T11:10:30;100263.50;;;12.04;90.58
11912;BME280;6016;41.928;25.556;2022-12-18T11:13:09;100264.06;;;11.96;90.10
11912;BME280;6016;41.928;25.556;2022-12-18T11:15:40;100268.50;;;11.95;91.36
11912;BME280;6016;41.928;25.556;2022-12-18T11:18:16;100271.03;;;11.97;91.28
11912;BME280;6016;41.928;25.556;2022-12-18T11:20:50;100271.47;;;11.79;91.59
11912;BME280;6016;41.928;25.556;2022-12-18T11:23:19;100221.47;;;11.53;92.27
11912;BME280;6016;41.928;25.556;2022-12-18T11:25:58;100217.41;;;11.61;91.12
11912;BME280;6016;41.928;25.556;2022-12-18T11:28:36;100232.38;;;11.37;92.51
11912;BME280;6016;41.928;25.556;2022-12-18T11:31:25;100284.69;;;11.79;92.10
11912;BME280;6016;41.928;25.556;2022-12-18T11:34:04;100285.28;;;11.72;92.73
11912;BME280;6016;41.928;25.556;2022-12-18T11:36:38;100289.00;;;11.58;93.78
11912;BME280;6016;41.928;25.556;2022-12-18T11:39:12;100263.50;;;11.45;93.95
11912;BME280;6016;41.928;25.556;2022-12-18T11:41:48;100265.09;;;11.59;93.70
11912;BME280;6016;41.928;25.556;2022-12-18T11:44:37;100225.50;;;11.23;93.68
11912;BME280;6016;41.928;25.556;2022-12-18T11:47:11;100285.63;;;11.67;93.73
11912;BME280;6016;41.928;25.556;2022-12-18T11:49:43;100233.19;;;11.26;94.01
11912;BME280;6016;41.928;25.556;2022-12-18T11:52:17;100224.88;;;11.20;94.48
11912;BME280;6016;41.928;25.556;2022-12-18T11:54:45;100234.63;;;11.19;94.42
11912;BME280;6016;41.928;25.556;2022-12-18T11:57:26;100270.22;;;11.38;95.01
11912;BME280;6016;41.928;25.556;2022-12-18T12:00:02;100247.31;;;11.14;95.24
11912;BME280;6016;41.928;25.556;2022-12-18T12:02:57;100253.94;;;11.20;95.52
11912;BME280;6016;41.928;25.556;2022-12-18T12:05:38;100276.50;;;11.24;96.35
11912;BME280;6016;41.928;25.556;2022-12-18T12:08:15;100164.91;;;10.50;96.29
11912;BME280;6016;41.928;25.556;2022-12-18T12:10:52;100291.81;;;11.32;95.83
11912;BME280;6016;41.928;25.556;2022-12-18T12:13:35;100291.25;;;11.39;95.75
11912;BME280;6016;41.928;25.556;2022-12-18T12:16:14;100252.84;;;11.11;95.36
11912;BME280;6016;41.928;25.556;2022-12-18T12:18:56;100238.34;;;10.92;95.18
11912;BME280;6016;41.928;25.556;2022-12-18T12:21:33;100303.81;;;11.36;95.08
11912;BME280;6016;41.928;25.556;2022-12-18T12:24:09;100278.22;;;11.25;94.32
11912;BME280;6016;41.928;25.556;2022-12-18T12:26:42;100247.56;;;11.11;93.89
11912;BME280;6016;41.928;25.556;2022-12-18T12:29:31;100292.44;;;11.47;93.50
11912;BME280;6016;41.928;25.556;2022-12-18T12:32:11;100286.06;;;11.38;92.90
11912;BME280;6016;41.928;25.556;2022-12-18T12:34:51;100297.47;;;11.38;94.26
11912;BME280;6016;41.928;25.556;2022-12-18T12:37:30;100266.84;;;11.00;93.05
11912;BME280;6016;41.928;25.556;2022-12-18T12:40:04;100043.38;;;9.67;93.15
11912;BME280;6016;41.928;25.556;2022-12-18T12:42:35;100314.34;;;11.24;93.26
11912;BME280;6016;41.928;25.556;2022-12-18T12:45:39;99630.63;;;6.87;92.87
11912;BME280;6016;41.928;25.556;2022-12-18T12:48:16;100320.06;;;11.18;93.51
11912;BME280;6016;41.928;25.556;2022-12-18T12:50:44;100293.13;;;11.02;93.08
11912;BME280;6016;41.928;25.556;2022-12-18T12:53:21;100329.41;;;11.11;92.69
11912;BME280;6016;41.928;25.556;2022-12-18T12:55:50;100307.72;;;10.94;93.39
11912;BME280;6016;41.928;25.556;2022-12-18T12:58:29;100334.69;;;11.11;91.91
11912;BME280;6016;41.928;25.556;2022-12-18T13:01:08;100343.56;;;11.10;90.84
11912;BME280;6016;41.928;25.556;2022-12-18T13:03:43;100326.91;;;10.72;90.31
11912;BME280;6016;41.928;25.556;2022-12-18T13:06:19;100342.66;;;10.98;89.25
11912;BME280;6016;41.928;25.556;2022-12-18T13:08:54;100349.50;;;11.01;87.18
11912;BME280;6016;41.928;25.556;2022-12-18T13:11:34;100328.84;;;10.94;87.12
11912;BME280;6016;41.928;25.556;2022-12-18T13:14:22;100352.06;;;11.02;86.57